createdAt,value
2019-03-06T00:00:12.307Z,8.10
2019-03-06T00:02:41.563Z,8.03
2019-03-06T00:08:06.317Z,8.10
2019-03-06T00:10:35.501Z,8.17
2019-03-06T00:13:04.712Z,9.57
2019-03-06T00:15:33.935Z,8.53
2019-03-06T00:18:03.345Z,8.87
2019-03-06T00:20:32.611Z,8.77
2019-03-06T00:23:02.276Z,9.30
2019-03-06T00:25:31.510Z,9.53
2019-03-06T00:28:00.717Z,9.27
2019-03-06T00:30:30.147Z,9.30
2019-03-06T00:32:59.648Z,8.93
2019-03-06T00:38:09.741Z,9.10
2019-03-06T00:40:58.202Z,9.07
2019-03-06T00:43:27.779Z,8.60
2019-03-06T00:45:57.011Z,9.27
2019-03-06T00:48:26.220Z,9.80
2019-03-06T00:50:55.470Z,9.17
2019-03-06T00:53:24.664Z,9.50
2019-03-06T00:55:54.178Z,9.43
2019-03-06T00:58:25.033Z,8.97
2019-03-06T01:00:54.653Z,8.87
2019-03-06T01:03:23.955Z,8.80
2019-03-06T01:05:53.209Z,9.50
2019-03-06T01:08:23.297Z,9.07
2019-03-06T01:10:52.531Z,9.43
2019-03-06T01:13:21.927Z,9.70
2019-03-06T01:19:05.197Z,8.90
2019-03-06T01:21:34.682Z,8.93
2019-03-06T01:24:03.921Z,9.00
2019-03-06T01:26:33.157Z,8.80
2019-03-06T01:29:02.384Z,9.20
2019-03-06T01:31:31.903Z,8.97
2019-03-06T01:34:20.289Z,9.57
2019-03-06T01:37:08.427Z,9.50
2019-03-06T01:39:56.768Z,9.70
2019-03-06T01:45:15.169Z,9.13
2019-03-06T01:47:44.396Z,9.10
2019-03-06T01:50:32.975Z,8.67
2019-03-06T01:53:02.194Z,8.43
2019-03-06T01:55:31.938Z,9.50
2019-03-06T01:58:01.198Z,8.93
2019-03-06T02:00:30.814Z,9.70
2019-03-06T02:03:00.056Z,9.70
2019-03-06T02:06:08.640Z,10.23
2019-03-06T02:08:37.874Z,9.83
2019-03-06T02:11:07.392Z,9.97
2019-03-06T02:13:36.651Z,9.83
2019-03-06T02:16:05.941Z,9.27
2019-03-06T02:18:35.201Z,9.17
2019-03-06T02:21:05.061Z,9.57
2019-03-06T02:23:34.352Z,9.63
2019-03-06T02:26:04.105Z,9.67
2019-03-06T02:28:33.756Z,9.60
2019-03-06T02:31:03.353Z,9.80
2019-03-06T02:33:32.596Z,9.77
2019-03-06T02:36:01.831Z,9.23
2019-03-06T02:38:31.505Z,9.43
2019-03-06T02:41:00.702Z,10.40
2019-03-06T02:43:29.960Z,9.60
2019-03-06T02:45:59.918Z,10.37
2019-03-06T02:48:29.178Z,10.10
2019-03-06T02:50:58.368Z,10.07
2019-03-06T02:53:27.591Z,9.83
2019-03-06T02:55:57.075Z,9.80
2019-03-06T03:01:27.715Z,10.10
2019-03-06T03:04:16.427Z,10.17
2019-03-06T03:06:49.578Z,10.20
2019-03-06T03:09:20.062Z,9.93
2019-03-06T03:11:49.272Z,10.23
2019-03-06T03:14:18.503Z,11.37
2019-03-06T03:16:47.683Z,11.17
2019-03-06T03:19:16.917Z,10.77
2019-03-06T03:21:46.132Z,12.70
2019-03-06T03:24:15.357Z,10.87
2019-03-06T03:26:44.810Z,10.87
2019-03-06T03:29:14.046Z,12.47
2019-03-06T03:31:43.272Z,11.60
2019-03-06T03:34:12.538Z,11.50
2019-03-06T03:36:41.755Z,12.17
2019-03-06T03:39:11.267Z,10.97
2019-03-06T03:41:40.599Z,11.63
2019-03-06T03:44:09.827Z,10.83
2019-03-06T03:46:39.355Z,10.47
2019-03-06T03:49:08.869Z,11.20
2019-03-06T03:51:38.394Z,10.63
2019-03-06T03:54:07.668Z,10.97
2019-03-06T03:56:36.863Z,10.23
2019-03-06T03:59:06.131Z,10.80
2019-03-06T04:01:35.329Z,9.87
2019-03-06T04:04:04.620Z,10.67
2019-03-06T04:06:33.820Z,9.57
2019-03-06T04:12:01.426Z,11.07
2019-03-06T04:14:30.643Z,10.87
2019-03-06T04:16:59.842Z,11.03
2019-03-06T04:19:29.052Z,10.20
2019-03-06T04:21:58.249Z,10.90
2019-03-06T04:24:27.740Z,11.03
2019-03-06T04:26:56.949Z,10.73
2019-03-06T04:29:26.155Z,11.50
2019-03-06T04:31:55.946Z,11.40
2019-03-06T04:34:25.494Z,12.37
2019-03-06T04:36:54.873Z,11.27
2019-03-06T04:39:24.383Z,11.70
2019-03-06T04:41:53.586Z,12.00
2019-03-06T04:44:23.052Z,11.40
2019-03-06T04:46:52.280Z,12.13
2019-03-06T04:49:21.658Z,13.17
2019-03-06T04:51:51.155Z,12.63
2019-03-06T04:54:20.441Z,12.50
2019-03-06T04:56:49.662Z,13.20
2019-03-06T04:59:18.902Z,13.30
2019-03-06T05:01:48.256Z,14.03
2019-03-06T05:04:17.458Z,13.10
2019-03-06T05:06:46.672Z,12.53
2019-03-06T05:09:15.881Z,13.17
2019-03-06T05:11:45.380Z,13.03
2019-03-06T05:14:14.649Z,14.03
2019-03-06T05:17:02.792Z,12.93
2019-03-06T05:19:32.303Z,13.53
2019-03-06T05:22:02.041Z,13.33
2019-03-06T05:24:31.241Z,13.70
2019-03-06T05:27:00.466Z,13.03
2019-03-06T05:29:29.943Z,13.33
2019-03-06T05:32:37.495Z,12.10
2019-03-06T05:35:13.348Z,13.77
2019-03-06T05:38:20.642Z,12.80
2019-03-06T05:40:49.858Z,13.00
2019-03-06T05:43:19.070Z,12.77
2019-03-06T05:45:48.529Z,13.87
2019-03-06T05:48:18.014Z,13.33
2019-03-06T05:50:47.229Z,13.50
2019-03-06T05:53:16.470Z,12.57
2019-03-06T05:55:45.698Z,12.83
2019-03-06T05:58:14.954Z,13.07
2019-03-06T06:00:44.577Z,12.40
2019-03-06T06:03:13.818Z,12.57
2019-03-06T06:05:43.315Z,12.17
2019-03-06T06:08:12.634Z,12.53
2019-03-06T06:10:41.838Z,10.90
2019-03-06T06:13:11.065Z,12.50
2019-03-06T06:15:40.580Z,11.57
2019-03-06T06:18:10.095Z,11.70
2019-03-06T06:20:39.628Z,11.97
2019-03-06T06:23:14.063Z,12.10
2019-03-06T06:25:43.573Z,11.90
2019-03-06T06:28:12.825Z,11.70
2019-03-06T06:30:42.025Z,11.40
2019-03-06T06:33:11.359Z,11.87
2019-03-06T06:35:40.564Z,11.93
2019-03-06T06:38:10.422Z,11.47
2019-03-06T06:40:39.626Z,11.73
2019-03-06T06:43:08.872Z,11.67
2019-03-06T06:45:38.097Z,11.37
2019-03-06T06:48:26.800Z,11.27
2019-03-06T06:51:17.277Z,10.57
2019-03-06T06:54:08.361Z,10.23
2019-03-06T06:57:15.654Z,10.40
2019-03-06T07:00:24.624Z,9.37
2019-03-06T07:03:51.229Z,9.30
2019-03-06T07:06:39.382Z,8.90
2019-03-06T07:09:27.997Z,9.10
2019-03-06T07:12:16.687Z,8.37
2019-03-06T07:15:05.918Z,8.43
2019-03-06T07:17:43.523Z,8.60
2019-03-06T07:20:31.651Z,8.13
2019-03-06T07:23:17.873Z,7.53
2019-03-06T07:26:06.286Z,8.20
2019-03-06T07:28:54.764Z,8.13
2019-03-06T07:31:43.441Z,7.37
2019-03-06T07:34:24.806Z,5.40
2019-03-06T07:36:58.634Z,5.17
2019-03-06T07:39:36.401Z,3.40
2019-03-06T07:42:24.523Z,3.97
2019-03-06T07:45:50.763Z,3.97
2019-03-06T07:48:27.161Z,3.70
2019-03-06T07:51:15.567Z,3.70
2019-03-06T07:54:09.552Z,3.50
2019-03-06T07:56:59.386Z,3.50
2019-03-06T07:59:29.928Z,2.90
2019-03-06T08:02:10.332Z,2.90
2019-03-06T08:04:39.617Z,2.63
2019-03-06T08:07:27.791Z,2.70
2019-03-06T08:09:57.084Z,2.47
2019-03-06T08:12:45.521Z,2.80
2019-03-06T08:15:34.146Z,2.70
2019-03-06T08:18:09.897Z,2.90
2019-03-06T08:20:58.044Z,2.23
2019-03-06T08:23:46.179Z,2.80
2019-03-06T08:26:15.423Z,2.90
2019-03-06T08:28:44.905Z,2.70
2019-03-06T08:31:33.364Z,2.47
2019-03-06T08:34:02.871Z,3.07
2019-03-06T08:36:32.406Z,2.60
2019-03-06T08:39:01.641Z,2.33
2019-03-06T08:41:31.150Z,2.70
2019-03-06T08:44:00.648Z,2.37
2019-03-06T08:46:38.283Z,2.40
2019-03-06T08:49:26.787Z,3.10
2019-03-06T08:55:11.186Z,3.10
2019-03-06T08:57:46.454Z,2.77
2019-03-06T09:00:55.444Z,3.07
2019-03-06T09:06:53.795Z,2.57
2019-03-06T09:09:42.228Z,2.93
2019-03-06T09:12:30.686Z,2.57
2019-03-06T09:15:18.790Z,2.97
2019-03-06T09:18:09.391Z,2.63
2019-03-06T09:20:57.074Z,2.73
2019-03-06T09:23:45.233Z,2.80
2019-03-06T09:26:33.717Z,2.87
2019-03-06T09:29:22.134Z,2.30
2019-03-06T09:32:10.625Z,2.90
2019-03-06T09:34:45.548Z,2.33
2019-03-06T09:37:33.772Z,2.70
2019-03-06T09:40:22.456Z,3.37
2019-03-06T09:43:11.434Z,2.70
2019-03-06T09:45:59.636Z,2.43
2019-03-06T09:48:47.810Z,2.53
2019-03-06T09:51:35.922Z,2.60
2019-03-06T09:57:17.465Z,2.70
2019-03-06T10:00:05.895Z,2.80
2019-03-06T10:02:46.370Z,2.83
2019-03-06T10:05:34.499Z,2.37
2019-03-06T10:08:22.934Z,2.57
2019-03-06T10:10:58.112Z,2.40
2019-03-06T10:13:46.286Z,2.40
2019-03-06T10:16:34.421Z,2.70
2019-03-06T10:21:59.533Z,2.63
2019-03-06T10:24:28.763Z,2.37
2019-03-06T10:26:58.240Z,2.70
2019-03-06T10:29:27.696Z,2.20
2019-03-06T10:31:57.273Z,2.50
2019-03-06T10:34:26.961Z,2.60
2019-03-06T10:36:56.180Z,2.73
2019-03-06T10:39:26.115Z,2.30
2019-03-06T10:41:55.328Z,2.43
2019-03-06T10:44:29.516Z,2.63
2019-03-06T10:46:55.977Z,2.30
2019-03-06T10:49:25.484Z,2.47
2019-03-06T10:51:54.682Z,2.50
2019-03-06T10:54:23.895Z,2.63
2019-03-06T10:56:53.423Z,2.60
2019-03-06T10:59:24.943Z,3.00
2019-03-06T11:01:54.279Z,3.47
2019-03-06T11:04:42.715Z,3.60
2019-03-06T11:10:23.664Z,3.00
2019-03-06T11:12:52.005Z,3.00
2019-03-06T11:15:21.638Z,3.37
2019-03-06T11:18:30.541Z,3.30
2019-03-06T11:20:59.807Z,3.40
2019-03-06T11:23:29.015Z,3.70
2019-03-06T11:25:58.528Z,3.47
2019-03-06T11:28:27.979Z,3.80
2019-03-06T11:31:36.582Z,3.43
2019-03-06T11:34:07.103Z,3.97
2019-03-06T11:36:36.328Z,3.33
2019-03-06T11:39:24.719Z,3.30
2019-03-06T11:41:54.656Z,3.20
2019-03-06T11:44:23.928Z,4.93
2019-03-06T11:46:53.186Z,4.40
2019-03-06T11:49:22.388Z,3.97
2019-03-06T11:51:51.700Z,4.13
2019-03-06T11:54:20.953Z,2.80
2019-03-06T11:56:50.499Z,3.63
2019-03-06T12:02:28.767Z,2.80
2019-03-06T12:04:58.007Z,2.80
2019-03-06T12:07:27.388Z,2.60
2019-03-06T12:09:56.762Z,2.07
2019-03-06T12:12:25.986Z,2.90
2019-03-06T12:14:55.360Z,2.33
2019-03-06T12:17:24.577Z,2.23
2019-03-06T12:20:33.174Z,3.00
2019-03-06T12:23:02.846Z,2.80
2019-03-06T12:25:32.524Z,2.67
2019-03-06T12:28:01.744Z,2.37
2019-03-06T12:30:31.238Z,2.40
2019-03-06T12:33:00.532Z,2.27
2019-03-06T12:35:29.756Z,2.00
2019-03-06T12:37:58.983Z,2.30
2019-03-06T12:41:07.612Z,2.70
2019-03-06T12:43:37.220Z,2.30
2019-03-06T12:46:26.099Z,2.10
2019-03-06T12:49:15.905Z,2.23
2019-03-06T12:51:53.859Z,2.20
2019-03-06T12:54:16.758Z,2.10
2019-03-06T12:57:05.717Z,2.47
2019-03-06T12:59:35.006Z,2.50
2019-03-06T13:02:06.348Z,2.23
2019-03-06T13:04:35.855Z,2.43
2019-03-06T13:07:05.481Z,2.90
2019-03-06T13:09:35.087Z,2.57
2019-03-06T13:12:06.947Z,3.00
2019-03-06T13:14:36.143Z,2.23
2019-03-06T13:17:05.488Z,2.20
2019-03-06T13:19:59.029Z,3.03
2019-03-06T13:22:28.450Z,2.40
2019-03-06T13:24:57.706Z,2.53
2019-03-06T13:30:01.542Z,2.70
2019-03-06T13:35:20.020Z,3.33
2019-03-06T13:37:49.789Z,3.20
2019-03-06T13:40:19.055Z,2.70
2019-03-06T13:42:48.340Z,2.87
2019-03-06T13:45:18.380Z,3.20
2019-03-06T13:47:47.626Z,2.57
2019-03-06T13:50:17.171Z,2.23
2019-03-06T13:52:46.545Z,2.33
2019-03-06T13:58:09.768Z,2.47
2019-03-06T14:00:40.093Z,2.63
2019-03-06T14:06:06.475Z,4.00
2019-03-06T14:08:36.570Z,11.97
2019-03-06T14:11:25.449Z,5.13
2019-03-06T14:13:54.946Z,2.50
2019-03-06T14:16:24.987Z,2.63
2019-03-06T14:19:29.614Z,2.97
2019-03-06T14:27:23.358Z,2.60
2019-03-06T14:30:20.766Z,3.07
2019-03-06T14:35:46.076Z,2.50
2019-03-06T14:46:49.754Z,2.70
2019-03-06T14:49:18.997Z,2.97
2019-03-06T14:51:49.120Z,3.00
2019-03-06T14:54:18.511Z,2.97
2019-03-06T14:56:47.832Z,3.03
2019-03-06T14:59:17.655Z,3.03
2019-03-06T15:01:46.869Z,3.17
2019-03-06T15:04:16.416Z,2.83
2019-03-06T15:06:45.976Z,2.80
2019-03-06T15:09:58.293Z,2.87
2019-03-06T15:12:27.676Z,3.37
2019-03-06T15:14:56.946Z,2.97
2019-03-06T15:17:26.438Z,3.30
2019-03-06T15:19:56.020Z,2.70
2019-03-06T15:22:25.249Z,2.87
2019-03-06T15:24:55.043Z,2.40
2019-03-06T15:27:24.703Z,2.93
2019-03-06T15:29:54.342Z,2.83
2019-03-06T15:32:24.092Z,2.53
2019-03-06T15:34:53.702Z,2.90
2019-03-06T15:37:43.590Z,2.97
2019-03-06T15:43:13.748Z,3.40
2019-03-06T15:45:43.016Z,3.37
2019-03-06T15:48:12.377Z,2.97
2019-03-06T15:50:41.737Z,3.93
2019-03-06T15:53:31.001Z,3.60
2019-03-06T15:56:00.335Z,3.43
2019-03-06T15:58:30.034Z,3.50
2019-03-06T16:00:59.495Z,2.80
2019-03-06T16:03:28.771Z,2.83
2019-03-06T16:05:58.045Z,3.20
2019-03-06T16:08:48.554Z,3.97
2019-03-06T16:11:19.737Z,3.03
2019-03-06T16:13:49.230Z,5.50
2019-03-06T16:16:18.461Z,3.77
2019-03-06T16:18:48.222Z,2.93
2019-03-06T16:21:17.456Z,3.57
2019-03-06T16:23:47.128Z,3.10
2019-03-06T16:26:16.382Z,2.63
2019-03-06T16:28:45.640Z,2.57
2019-03-06T16:34:10.684Z,2.50
2019-03-06T16:36:41.488Z,3.00
2019-03-06T16:39:11.123Z,3.10
2019-03-06T16:41:41.056Z,3.33
2019-03-06T16:44:10.761Z,2.83
2019-03-06T17:06:18.225Z,3.37
2019-03-06T17:09:08.199Z,3.30
2019-03-06T17:11:57.588Z,4.63
2019-03-06T17:14:45.891Z,3.80
2019-03-06T17:17:15.472Z,4.33
2019-03-06T17:19:45.128Z,2.93
2019-03-06T17:22:14.552Z,4.03
2019-03-06T17:24:43.925Z,3.50
2019-03-06T17:27:14.199Z,3.77
2019-03-06T17:29:44.730Z,4.40
2019-03-06T17:32:14.149Z,3.53
2019-03-06T17:34:44.292Z,3.60
2019-03-06T17:37:14.304Z,3.43
2019-03-06T17:40:03.898Z,3.17
2019-03-06T17:42:52.341Z,3.00
2019-03-06T17:45:21.686Z,2.90
2019-03-06T17:47:51.020Z,2.97
2019-03-06T17:50:20.844Z,3.20
2019-03-06T17:52:50.687Z,2.80
2019-03-06T17:55:39.509Z,2.93
2019-03-06T17:58:08.955Z,2.90
2019-03-06T18:09:12.712Z,3.07
2019-03-06T18:11:42.829Z,2.93
2019-03-06T18:14:15.048Z,3.17
2019-03-06T18:16:44.991Z,2.63
2019-03-06T18:19:20.710Z,3.10
2019-03-06T18:21:50.630Z,3.00
2019-03-06T18:24:20.640Z,3.20
2019-03-06T18:26:51.194Z,3.13
2019-03-06T18:29:20.968Z,3.27
2019-03-06T18:37:55.439Z,3.43
2019-03-06T18:43:38.894Z,3.60
2019-03-06T18:46:08.425Z,3.57
2019-03-06T18:48:37.721Z,3.20
2019-03-06T18:51:07.477Z,3.27
2019-03-06T18:53:36.937Z,3.53
2019-03-06T18:56:06.186Z,3.13
2019-03-06T18:58:35.464Z,3.20
2019-03-06T19:01:04.676Z,3.37
2019-03-06T19:03:34.150Z,3.70
2019-03-06T19:06:03.495Z,3.97
2019-03-06T19:08:33.093Z,3.80
2019-03-06T19:11:02.639Z,3.63
2019-03-06T19:13:32.130Z,3.10
2019-03-06T19:16:02.189Z,3.00
2019-03-06T19:18:31.463Z,3.20
2019-03-06T19:21:00.965Z,3.40
2019-03-06T19:23:31.446Z,3.33
2019-03-06T19:26:01.168Z,3.70
2019-03-06T19:28:30.432Z,3.80
2019-03-06T19:30:59.843Z,3.80
2019-03-06T19:33:29.681Z,3.10
2019-03-06T19:36:00.213Z,3.90
2019-03-06T19:38:29.973Z,3.47
2019-03-06T19:41:18.301Z,3.20
2019-03-06T19:52:03.913Z,3.60
2019-03-06T19:54:33.475Z,3.37
2019-03-06T19:57:02.890Z,3.33
2019-03-06T19:59:32.504Z,3.10
2019-03-06T20:02:02.124Z,3.03
2019-03-06T20:04:36.096Z,3.47
2019-03-06T20:15:53.356Z,3.27
2019-03-06T20:18:41.608Z,3.37
2019-03-06T20:21:12.612Z,3.40
2019-03-06T20:23:42.084Z,3.33
2019-03-06T20:26:15.996Z,3.53
2019-03-06T20:28:46.366Z,3.50
2019-03-06T20:31:16.736Z,4.57
2019-03-06T20:33:47.091Z,3.27
2019-03-06T20:36:16.622Z,3.70
2019-03-06T20:44:36.628Z,3.60
2019-03-06T20:47:06.125Z,2.90
2019-03-06T20:49:35.505Z,3.90
2019-03-06T21:00:44.096Z,3.50
2019-03-06T21:08:47.537Z,3.40
2019-03-06T21:41:18.971Z,3.73
2019-03-06T21:43:50.542Z,4.03
2019-03-06T21:46:20.905Z,3.80
2019-03-06T21:48:50.745Z,3.37
2019-03-06T21:51:20.205Z,4.40
2019-03-06T21:53:51.649Z,3.33
2019-03-06T21:59:12.348Z,3.40
2019-03-06T22:01:41.728Z,3.70
2019-03-06T22:04:11.493Z,3.80
2019-03-06T22:06:42.593Z,4.00
2019-03-06T22:09:14.334Z,4.37
2019-03-06T22:11:43.745Z,3.80
2019-03-06T22:14:33.141Z,3.77
2019-03-06T22:17:02.619Z,4.10
2019-03-06T22:19:31.889Z,4.47
2019-03-06T22:22:01.375Z,4.43
2019-03-06T22:24:30.716Z,3.83
2019-03-06T22:27:00.850Z,3.90
2019-03-06T22:29:31.524Z,4.13
2019-03-06T22:32:00.999Z,4.00
2019-03-06T22:34:31.009Z,4.40
2019-03-06T22:37:00.570Z,3.80
2019-03-06T22:44:46.355Z,3.90
2019-03-06T22:47:35.301Z,4.03
2019-03-06T22:50:10.096Z,4.13
2019-03-06T22:52:42.919Z,3.90
2019-03-06T22:55:15.329Z,3.80
2019-03-06T22:57:44.592Z,3.80
2019-03-06T23:03:16.090Z,3.63
2019-03-06T23:05:45.536Z,3.90
2019-03-06T23:08:34.071Z,3.93
2019-03-06T23:11:03.494Z,4.17
2019-03-06T23:13:33.402Z,3.83
2019-03-06T23:16:02.994Z,3.70
2019-03-06T23:18:33.422Z,3.53
2019-03-06T23:21:03.853Z,3.63
2019-03-06T23:23:33.225Z,4.00
2019-03-06T23:26:06.899Z,3.70
2019-03-06T23:28:36.645Z,3.50
2019-03-06T23:31:06.486Z,3.57
2019-03-06T23:33:41.749Z,3.83
2019-03-06T23:36:18.976Z,3.83
2019-03-06T23:41:38.145Z,3.77
2019-03-06T23:44:11.530Z,3.77
2019-03-06T23:46:43.963Z,3.60
2019-03-06T23:49:13.918Z,3.50
2019-03-06T23:52:03.033Z,3.57
2019-03-06T23:54:35.383Z,3.83
2019-03-06T23:57:05.319Z,3.60
2019-03-06T23:59:35.918Z,3.33
